createdAt,value
2018-05-26T00:01:28.230Z,56.70
2018-05-26T00:04:51.502Z,57.80
2018-05-26T00:08:15.232Z,57.95
2018-05-26T00:11:38.572Z,57.73
2018-05-26T00:15:04.175Z,57.47
2018-05-26T00:18:27.604Z,57.66
2018-05-26T00:21:51.047Z,56.40
2018-05-26T00:25:14.503Z,56.04
2018-05-26T00:28:37.942Z,56.48
2018-05-26T00:32:01.406Z,56.95
2018-05-26T00:35:25.480Z,57.47
2018-05-26T00:38:50.480Z,58.69
2018-05-26T00:42:13.812Z,58.66
2018-05-26T00:45:37.201Z,58.72
2018-05-26T00:49:00.620Z,58.82
2018-05-26T00:52:24.090Z,58.43
2018-05-26T00:55:47.513Z,58.48
2018-05-26T00:59:10.901Z,58.14
2018-05-26T01:02:34.384Z,58.57
2018-05-26T01:05:59.979Z,58.73
2018-05-26T01:09:23.414Z,59.39
2018-05-26T01:12:46.814Z,59.32
2018-05-26T01:16:10.264Z,59.62
2018-05-26T01:19:33.659Z,59.99
2018-05-26T01:22:57.680Z,59.48
2018-05-26T01:26:21.446Z,59.68
2018-05-26T01:29:46.935Z,60.49
2018-05-26T01:33:10.567Z,60.92
2018-05-26T01:36:34.165Z,61.14
2018-05-26T01:39:57.510Z,61.93
2018-05-26T01:43:20.919Z,61.87
2018-05-26T01:46:44.341Z,62.13
2018-05-26T01:50:07.802Z,62.05
2018-05-26T01:53:31.276Z,62.16
2018-05-26T01:56:54.680Z,62.01
2018-05-26T02:00:18.090Z,62.54
2018-05-26T02:03:41.689Z,61.91
2018-05-26T02:07:07.054Z,62.39
2018-05-26T02:10:30.467Z,62.34
2018-05-26T02:13:53.895Z,62.16
2018-05-26T02:17:17.301Z,61.82
2018-05-26T02:20:42.843Z,61.96
2018-05-26T02:24:06.337Z,62.63
2018-05-26T02:27:29.723Z,62.43
2018-05-26T02:30:53.119Z,62.55
2018-05-26T02:34:16.553Z,61.86
2018-05-26T02:37:40.147Z,62.04
2018-05-26T02:41:03.412Z,63.10
2018-05-26T02:44:26.683Z,64.25
2018-05-26T02:47:52.570Z,63.38
2018-05-26T02:51:16.643Z,62.65
2018-05-26T02:54:41.379Z,61.83
2018-05-26T02:58:04.842Z,62.40
2018-05-26T03:01:28.306Z,62.51
2018-05-26T03:04:57.203Z,62.54
2018-05-26T03:08:26.957Z,62.42
2018-05-26T03:11:56.802Z,62.95
2018-05-26T03:15:20.174Z,62.93
2018-05-26T03:18:44.414Z,63.06
2018-05-26T03:22:07.693Z,62.73
2018-05-26T03:25:33.212Z,64.06
2018-05-26T03:28:56.665Z,64.08
2018-05-26T03:32:21.549Z,63.28
2018-05-26T03:35:45.655Z,63.82
2018-05-26T03:39:10.528Z,64.32
2018-05-26T03:42:34.817Z,64.73
2018-05-26T03:46:00.184Z,64.65
2018-05-26T03:49:23.748Z,64.38
2018-05-26T03:52:47.065Z,63.23
2018-05-26T03:56:30.251Z,64.28
2018-05-26T04:00:11.562Z,64.80
2018-05-26T04:03:35.109Z,64.95
2018-05-26T04:06:58.496Z,64.86
2018-05-26T04:10:21.942Z,65.36
2018-05-26T04:13:45.558Z,65.45
2018-05-26T04:17:08.843Z,65.69
2018-05-26T04:20:32.291Z,65.81
2018-05-26T04:23:57.775Z,64.58
2018-05-26T04:27:21.217Z,65.36
2018-05-26T04:30:46.730Z,63.64
2018-05-26T04:34:10.303Z,64.51
2018-05-26T04:37:35.788Z,64.48
2018-05-26T04:40:59.192Z,65.15
2018-05-26T04:44:22.635Z,65.62
2018-05-26T04:47:46.088Z,65.84
2018-05-26T04:51:09.527Z,65.28
2018-05-26T04:54:32.986Z,65.21
2018-05-26T04:57:56.583Z,64.97
2018-05-26T05:01:20.049Z,65.29
2018-05-26T05:04:43.373Z,65.88
2018-05-26T05:08:06.763Z,65.61
2018-05-26T05:11:30.193Z,66.59
2018-05-26T05:14:55.730Z,66.19
2018-05-26T05:18:19.149Z,64.52
2018-05-26T05:21:42.770Z,65.65
2018-05-26T05:25:06.092Z,64.24
2018-05-26T05:28:31.605Z,63.56
2018-05-26T05:31:54.992Z,62.67
2018-05-26T05:35:18.473Z,62.50
2018-05-26T05:38:41.946Z,61.55
2018-05-26T05:42:05.383Z,60.96
2018-05-26T05:45:28.958Z,60.59
2018-05-26T05:48:52.456Z,60.00
2018-05-26T05:52:15.747Z,60.70
2018-05-26T05:55:39.302Z,60.18
2018-05-26T05:59:02.573Z,59.97
2018-05-26T06:02:26.001Z,59.11
2018-05-26T06:05:49.421Z,58.79
2018-05-26T06:09:12.861Z,58.30
2018-05-26T06:12:36.588Z,57.70
2018-05-26T06:16:01.911Z,58.15
2018-05-26T06:19:25.323Z,57.60
2018-05-26T06:22:48.802Z,56.63
2018-05-26T06:26:12.220Z,56.79
2018-05-26T06:29:36.323Z,56.18
2018-05-26T06:33:02.491Z,55.56
2018-05-26T06:36:27.348Z,55.15
2018-05-26T06:39:51.507Z,54.78
2018-05-26T06:43:14.966Z,54.48
2018-05-26T06:46:39.671Z,54.58
2018-05-26T06:50:03.098Z,54.53
2018-05-26T06:53:26.596Z,54.03
2018-05-26T06:56:50.046Z,54.98
2018-05-26T07:00:13.462Z,54.52
2018-05-26T07:03:36.889Z,54.04
2018-05-26T07:07:00.311Z,53.78
2018-05-26T07:10:23.777Z,54.10
2018-05-26T07:13:47.237Z,55.74
2018-05-26T07:17:10.729Z,54.98
2018-05-26T07:20:34.149Z,53.01
2018-05-26T07:23:57.586Z,53.00
2018-05-26T07:27:21.029Z,53.35
2018-05-26T07:30:44.451Z,52.88
2018-05-26T07:34:08.039Z,53.05
2018-05-26T07:37:33.368Z,52.86
2018-05-26T07:40:58.969Z,52.63
2018-05-26T07:44:22.367Z,52.58
2018-05-26T07:47:45.803Z,52.51
2018-05-26T07:51:09.284Z,54.09
2018-05-26T07:54:32.750Z,53.39
2018-05-26T07:57:56.325Z,53.04
2018-05-26T08:01:19.623Z,54.32
2018-05-26T08:04:42.997Z,54.19
2018-05-26T08:08:07.175Z,54.66
2018-05-26T08:11:31.994Z,54.86
2018-05-26T08:14:55.381Z,53.61
2018-05-26T08:18:19.895Z,52.28
2018-05-26T08:21:43.308Z,49.71
2018-05-26T08:25:08.857Z,50.74
2018-05-26T08:28:32.361Z,51.59
2018-05-26T08:31:55.810Z,51.14
2018-05-26T08:35:19.436Z,50.38
2018-05-26T08:38:43.176Z,48.01
2018-05-26T08:42:08.227Z,48.17
2018-05-26T08:45:33.477Z,47.28
2018-05-26T08:48:58.999Z,48.27
2018-05-26T08:52:22.433Z,47.66
2018-05-26T08:55:45.862Z,46.81
2018-05-26T08:59:09.327Z,46.79
2018-05-26T09:02:32.770Z,47.17
2018-05-26T09:05:56.182Z,45.98
2018-05-26T09:09:19.753Z,45.45
2018-05-26T09:12:43.024Z,44.21
2018-05-26T09:16:06.506Z,44.45
2018-05-26T09:19:29.932Z,44.93
2018-05-26T09:22:53.312Z,45.20
2018-05-26T09:26:16.781Z,44.42
2018-05-26T09:29:40.266Z,44.41
2018-05-26T09:33:03.655Z,42.18
2018-05-26T09:36:29.165Z,41.67
2018-05-26T09:39:52.573Z,42.31
2018-05-26T09:43:16.003Z,43.90
2018-05-26T09:46:39.468Z,43.33
2018-05-26T09:50:02.870Z,44.28
2018-05-26T09:53:26.317Z,43.92
2018-05-26T09:56:49.845Z,43.50
2018-05-26T10:00:13.199Z,45.10
2018-05-26T10:03:36.557Z,44.28
2018-05-26T10:07:02.257Z,43.99
2018-05-26T10:10:25.634Z,43.85
2018-05-26T10:13:48.942Z,42.63
2018-05-26T10:17:14.485Z,44.05
2018-05-26T10:20:37.955Z,43.46
2018-05-26T10:24:01.375Z,42.35
2018-05-26T10:27:24.818Z,42.21
2018-05-26T10:30:50.355Z,42.35
2018-05-26T10:34:15.815Z,42.12
2018-05-26T10:37:39.408Z,40.95
2018-05-26T10:41:02.732Z,42.68
2018-05-26T10:44:26.271Z,42.37
2018-05-26T10:47:49.613Z,41.09
2018-05-26T10:51:16.649Z,41.09
2018-05-26T10:54:41.018Z,41.05
2018-05-26T10:58:06.386Z,40.37
2018-05-26T11:01:30.270Z,40.64
2018-05-26T11:04:57.339Z,39.24
2018-05-26T11:08:21.386Z,39.67
2018-05-26T11:11:44.840Z,39.76
2018-05-26T11:15:08.322Z,38.40
2018-05-26T11:18:31.717Z,38.45
2018-05-26T11:21:55.140Z,38.41
2018-05-26T11:25:18.620Z,38.23
2018-05-26T11:28:42.004Z,38.66
2018-05-26T11:32:05.426Z,37.43
2018-05-26T11:35:29.285Z,38.21
2018-05-26T11:38:54.376Z,37.38
2018-05-26T11:42:17.864Z,38.00
2018-05-26T11:45:41.326Z,37.95
2018-05-26T11:49:04.823Z,37.48
2018-05-26T11:52:28.172Z,37.54
2018-05-26T11:55:51.636Z,36.06
2018-05-26T11:59:15.172Z,36.46
2018-05-26T12:02:38.524Z,34.47
2018-05-26T12:06:04.088Z,33.67
2018-05-26T12:09:27.550Z,34.07
2018-05-26T12:12:51.245Z,35.57
2018-05-26T12:16:14.720Z,35.69
2018-05-26T12:19:38.220Z,38.97
2018-05-26T12:23:01.744Z,37.79
2018-05-26T12:26:25.284Z,36.77
2018-05-26T12:29:49.166Z,36.42
2018-05-26T12:33:14.243Z,38.61
2018-05-26T12:36:37.804Z,36.44
2018-05-26T12:40:01.451Z,34.40
2018-05-26T12:43:26.685Z,32.60
2018-05-26T12:46:50.379Z,32.61
2018-05-26T12:50:14.508Z,31.75
2018-05-26T12:53:39.563Z,30.59
2018-05-26T12:57:03.005Z,30.73
2018-05-26T13:00:27.762Z,32.62
2018-05-26T13:03:52.131Z,31.27
2018-05-26T13:07:15.697Z,32.29
2018-05-26T13:10:40.997Z,33.14
2018-05-26T13:14:05.255Z,33.38
2018-05-26T13:17:29.102Z,33.33
2018-05-26T13:20:52.409Z,32.58
2018-05-26T13:24:15.954Z,31.08
2018-05-26T13:27:39.340Z,31.69
2018-05-26T13:31:02.777Z,28.95
2018-05-26T13:34:26.273Z,28.58
2018-05-26T13:37:49.775Z,29.24
2018-05-26T13:41:13.338Z,28.41
2018-05-26T13:44:39.053Z,28.83
2018-05-26T13:48:02.501Z,27.64
2018-05-26T13:51:26.086Z,26.78
2018-05-26T13:54:51.638Z,26.92
2018-05-26T13:58:15.072Z,26.60
2018-05-26T14:01:38.500Z,26.74
2018-05-26T14:05:01.998Z,27.52
2018-05-26T14:08:25.475Z,28.06
2018-05-26T14:11:48.959Z,27.61
2018-05-26T14:15:12.373Z,27.56
2018-05-26T14:18:37.901Z,28.08
2018-05-26T14:22:01.339Z,28.37
2018-05-26T14:25:24.795Z,27.65
2018-05-26T14:28:48.257Z,28.26
2018-05-26T14:32:11.653Z,28.40
2018-05-26T14:35:37.198Z,27.94
2018-05-26T14:39:03.167Z,28.07
2018-05-26T14:42:28.276Z,27.73
2018-05-26T14:45:51.723Z,26.49
2018-05-26T14:49:16.629Z,25.33
2018-05-26T14:52:40.670Z,25.59
2018-05-26T14:56:06.197Z,24.80
2018-05-26T14:59:33.217Z,24.79
2018-05-26T15:02:57.314Z,25.37
2018-05-26T15:06:22.791Z,24.95
2018-05-26T15:09:48.312Z,25.48
2018-05-26T15:13:14.091Z,25.99
2018-05-26T15:16:39.353Z,25.31
2018-05-26T15:20:02.869Z,25.54
2018-05-26T15:23:28.342Z,25.72
2018-05-26T15:26:54.023Z,27.01
2018-05-26T15:30:17.521Z,27.70
2018-05-26T15:33:42.807Z,29.40
2018-05-26T15:37:06.436Z,27.10
2018-05-26T15:40:29.703Z,26.86
2018-05-26T15:43:55.293Z,26.54
2018-05-26T15:47:18.757Z,25.92
2018-05-26T15:50:42.207Z,27.30
2018-05-26T15:54:05.708Z,27.70
2018-05-26T15:57:29.093Z,26.56
2018-05-26T16:00:52.563Z,27.19
2018-05-26T16:04:15.987Z,26.97
2018-05-26T16:07:39.470Z,27.09
2018-05-26T16:11:02.869Z,27.64
2018-05-26T16:14:26.334Z,27.91
2018-05-26T16:17:49.802Z,25.48
2018-05-26T16:21:15.305Z,25.10
2018-05-26T16:24:38.747Z,26.66
2018-05-26T16:28:02.262Z,25.79
2018-05-26T16:31:25.605Z,24.79
2018-05-26T16:34:49.033Z,24.38
2018-05-26T16:38:14.735Z,25.44
2018-05-26T16:41:40.142Z,26.15
2018-05-26T16:45:03.688Z,26.12
2018-05-26T16:48:29.067Z,26.52
2018-05-26T16:51:54.747Z,27.22
2018-05-26T16:55:18.137Z,27.27
2018-05-26T16:58:41.709Z,28.48
2018-05-26T17:02:04.995Z,28.48
2018-05-26T17:05:28.435Z,29.69
2018-05-26T17:08:51.877Z,30.63
2018-05-26T17:12:15.273Z,30.11
2018-05-26T17:15:38.733Z,30.45
2018-05-26T17:19:02.223Z,30.94
2018-05-26T17:22:27.866Z,30.42
2018-05-26T17:25:51.165Z,31.30
2018-05-26T17:29:14.631Z,31.31
2018-05-26T17:32:38.114Z,31.90
2018-05-26T17:36:01.503Z,31.50
2018-05-26T17:39:27.040Z,31.80
2018-05-26T17:42:50.861Z,31.85
2018-05-26T17:46:15.985Z,32.37
2018-05-26T17:49:39.425Z,32.35
2018-05-26T17:53:02.872Z,33.73
2018-05-26T17:56:26.777Z,35.53
2018-05-26T17:59:52.430Z,35.46
2018-05-26T18:03:15.763Z,37.01
2018-05-26T18:06:39.351Z,37.46
2018-05-26T18:10:02.857Z,38.36
2018-05-26T18:14:00.685Z,38.78
2018-05-26T18:17:25.329Z,39.40
2018-05-26T18:20:48.977Z,39.45
2018-05-26T18:24:14.310Z,40.46
2018-05-26T18:27:37.740Z,41.48
2018-05-26T18:31:01.436Z,41.33
2018-05-26T18:34:27.047Z,41.53
2018-05-26T18:37:52.307Z,41.60
2018-05-26T18:41:15.852Z,42.13
2018-05-26T18:44:39.545Z,41.95
2018-05-26T18:48:04.848Z,42.51
2018-05-26T18:51:28.584Z,42.58
2018-05-26T18:54:53.773Z,42.82
2018-05-26T18:58:17.277Z,42.75
2018-05-26T19:01:40.997Z,43.19
2018-05-26T19:05:06.309Z,43.40
2018-05-26T19:08:29.818Z,44.01
2018-05-26T19:11:53.209Z,44.58
2018-05-26T19:15:16.687Z,44.93
2018-05-26T19:18:42.302Z,45.14
2018-05-26T19:22:05.815Z,45.67
2018-05-26T19:25:31.365Z,46.13
2018-05-26T19:28:56.297Z,46.39
2018-05-26T19:32:20.521Z,46.54
2018-05-26T19:35:44.155Z,46.72
2018-05-26T19:39:07.849Z,47.16
2018-05-26T19:42:31.437Z,47.35
2018-05-26T19:45:56.752Z,47.47
2018-05-26T19:49:20.347Z,47.16
2018-05-26T19:52:43.803Z,46.27
2018-05-26T19:56:07.191Z,46.51
2018-05-26T19:59:32.926Z,46.24
2018-05-26T20:02:56.515Z,45.66
2018-05-26T20:06:19.927Z,45.48
2018-05-26T20:09:45.821Z,45.22
2018-05-26T20:13:09.933Z,45.39
2018-05-26T20:16:33.596Z,45.98
2018-05-26T20:19:57.672Z,46.57
2018-05-26T20:24:15.763Z,45.76
2018-05-26T20:27:41.331Z,45.18
2018-05-26T20:31:06.773Z,44.06
2018-05-26T20:34:32.653Z,44.02
2018-05-26T20:37:58.951Z,43.96
2018-05-26T20:41:23.919Z,44.63
2018-05-26T20:44:49.344Z,45.35
2018-05-26T20:48:14.931Z,46.04
2018-05-26T20:51:40.588Z,45.84
2018-05-26T20:55:06.109Z,45.83
2018-05-26T20:58:31.694Z,45.54
2018-05-26T21:01:56.309Z,45.80
2018-05-26T21:05:21.486Z,46.62
2018-05-26T21:08:47.224Z,44.43
2018-05-26T21:12:12.757Z,43.57
2018-05-26T21:15:38.353Z,42.08
2018-05-26T21:19:03.898Z,42.35
2018-05-26T21:22:27.427Z,42.33
2018-05-26T21:25:52.842Z,42.67
2018-05-26T21:29:17.671Z,42.52
2018-05-26T21:32:42.291Z,42.89
2018-05-26T21:36:06.259Z,43.22
2018-05-26T21:39:32.080Z,42.48
2018-05-26T21:42:55.617Z,42.85
2018-05-26T21:46:19.321Z,42.57
2018-05-26T21:49:44.957Z,42.80
2018-05-26T21:53:08.497Z,42.97
2018-05-26T22:04:31.573Z,45.68
2018-05-26T22:07:55.713Z,45.83
2018-05-26T22:11:19.133Z,47.51
2018-05-26T22:14:45.191Z,48.78
2018-05-26T22:18:10.148Z,47.50
2018-05-26T22:21:34.124Z,47.69
2018-05-26T22:24:59.201Z,48.75
2018-05-26T22:28:22.731Z,49.07
2018-05-26T22:31:46.091Z,48.77
2018-05-26T22:35:09.548Z,49.29
2018-05-26T22:38:33.003Z,50.26
2018-05-26T22:41:56.541Z,51.20
2018-05-26T22:45:19.977Z,52.32
2018-05-26T22:48:43.590Z,52.73
2018-05-26T22:52:06.967Z,53.48
2018-05-26T22:55:32.499Z,53.41
2018-05-26T22:58:57.609Z,53.03
2018-05-26T23:02:21.645Z,52.88
2018-05-26T23:05:47.218Z,52.72
2018-05-26T23:09:10.811Z,52.54
2018-05-26T23:12:34.303Z,53.02
2018-05-26T23:15:59.876Z,52.68
2018-05-26T23:19:23.322Z,53.21
2018-05-26T23:22:48.873Z,55.10
2018-05-26T23:26:12.328Z,55.68
2018-05-26T23:29:35.886Z,54.83
2018-05-26T23:32:59.396Z,56.33
2018-05-26T23:36:22.777Z,56.35
2018-05-26T23:39:46.705Z,56.22
2018-05-26T23:43:11.722Z,55.75
2018-05-26T23:46:35.246Z,56.13
2018-05-26T23:49:58.642Z,56.83
2018-05-26T23:53:22.158Z,57.73
2018-05-26T23:56:45.460Z,57.56
